Time;durP1;ratioP1;P1;durP2;ratioP2;P2;SDS_P1;SDS_P2;PMS_P1;PMS_P2;Temp;Humidity;BMP_temperature;BMP_pressure;BME280_temperature;BME280_humidity;BME280_pressure;Samples;Min_cycle;Max_cycle;Signal;HPM_P1;HPM_P2
2021/10/27 00:00:11;;;;;;;0.30;0.30;;;;;;;0.28;72.63;98228.50;5031333;28;20029;-61
2021/10/27 00:02:37;;;;;;;0.40;0.40;;;;;;;0.30;72.51;98222.91;5032020;28;20029;-61
2021/10/27 00:05:05;;;;;;;0.22;0.22;;;;;;;0.30;72.59;98222.91;5031696;28;20059;-61
2021/10/27 00:07:32;;;;;;;0.35;0.35;;;;;;;0.31;72.54;98222.72;5031761;28;20077;-61
2021/10/27 00:09:58;;;;;;;0.43;0.43;;;;;;;0.31;72.48;98225.44;5031725;28;20076;-61
2021/10/27 00:12:24;;;;;;;0.38;0.38;;;;;;;0.33;72.71;98227.94;5031611;28;20124;-62
2021/10/27 00:14:50;;;;;;;0.20;0.20;;;;;;;0.39;72.59;98220.97;5032078;28;20040;-62
2021/10/27 00:17:16;;;;;;;0.20;0.20;;;;;;;0.40;72.75;98226.19;5032121;28;20384;-62
2021/10/27 00:19:41;;;;;;;0.32;0.32;;;;;;;0.42;72.47;98218.72;5031689;28;20029;-62
2021/10/27 00:22:07;;;;;;;0.32;0.32;;;;;;;0.46;72.62;98227.31;5031876;28;20068;-61
2021/10/27 00:24:33;;;;;;;0.20;0.20;;;;;;;0.47;72.37;98224.44;5031839;28;20037;-61
2021/10/27 00:26:59;;;;;;;0.30;0.30;;;;;;;0.48;72.44;98233.38;5033867;28;20040;-62
2021/10/27 00:29:25;;;;;;;0.57;0.43;;;;;;;0.44;72.41;98226.66;5035457;28;20046;-63
2021/10/27 00:31:50;;;;;;;0.20;0.20;;;;;;;0.44;72.48;98221.25;5033645;28;20511;-60
2021/10/27 00:34:16;;;;;;;0.45;0.45;;;;;;;0.45;72.40;98229.16;5035282;28;20041;-61
2021/10/27 00:36:42;;;;;;;0.20;0.20;;;;;;;0.46;72.39;98224.63;5035422;28;20447;-61
2021/10/27 00:39:07;;;;;;;0.20;0.20;;;;;;;0.46;72.52;98224.63;5035047;28;20037;-61
2021/10/27 00:41:33;;;;;;;0.25;0.25;;;;;;;0.48;72.37;98233.38;5034743;28;20037;-61
2021/10/27 00:43:59;;;;;;;0.30;0.30;;;;;;;0.49;72.34;98229.66;5035065;28;20087;-61
2021/10/27 00:46:25;;;;;;;0.28;0.28;;;;;;;0.47;72.55;98227.13;5035382;28;20396;-61
2021/10/27 00:48:52;;;;;;;0.20;0.20;;;;;;;0.46;72.57;98224.63;5035149;28;20029;-61
2021/10/27 00:51:19;;;;;;;0.20;0.20;;;;;;;0.43;72.71;98225.81;5035019;28;20037;-60
2021/10/27 00:53:46;;;;;;;4.25;0.70;;;;;;;0.44;72.75;98215.84;5035261;28;20168;-61
2021/10/27 00:56:13;;;;;;;2.00;0.82;;;;;;;0.48;72.60;98225.25;5034701;28;20108;-61
2021/10/27 00:58:40;;;;;;;0.20;0.20;;;;;;;0.48;72.70;98223.38;5034689;28;20495;-61
2021/10/27 01:01:07;;;;;;;0.30;0.30;;;;;;;0.50;72.49;98226.75;5034386;28;20457;-61
2021/10/27 01:03:35;;;;;;;0.32;0.32;;;;;;;0.51;72.46;98228.41;5034787;28;20598;-61
2021/10/27 01:06:03;;;;;;;0.30;0.30;;;;;;;0.51;72.52;98230.28;5034600;28;20038;-61
2021/10/27 01:08:29;;;;;;;0.28;0.28;;;;;;;0.52;72.39;98234.69;5033470;28;20034;-60
2021/10/27 01:10:55;;;;;;;0.22;0.22;;;;;;;0.51;72.49;98241.09;5034513;28;20507;-61
2021/10/27 01:13:20;;;;;;;0.30;0.30;;;;;;;0.51;72.56;98241.09;5034717;28;20030;-60
2021/10/27 01:15:46;;;;;;;0.43;0.43;;;;;;;0.51;72.61;98238.41;5034594;28;20033;-61
2021/10/27 01:18:12;;;;;;;0.20;0.20;;;;;;;0.51;72.65;98241.09;5034032;28;20041;-60
2021/10/27 01:20:38;;;;;;;0.20;0.20;;;;;;;0.53;72.57;98239.06;5034396;28;20077;-59
2021/10/27 01:23:04;;;;;;;0.65;0.65;;;;;;;0.54;72.55;98248.81;5034577;28;20037;-61
2021/10/27 01:25:30;;;;;;;0.20;0.20;;;;;;;0.53;72.62;98247.16;5034627;28;20048;-62
2021/10/27 01:27:56;;;;;;;1.17;0.73;;;;;;;0.53;72.73;98241.78;5034750;28;20048;-60
2021/10/27 01:30:24;;;;;;;0.20;0.20;;;;;;;0.57;72.58;98247.63;5033743;28;20119;-60
2021/10/27 01:32:51;;;;;;;0.20;0.20;;;;;;;0.57;72.50;98240.34;5034122;28;20045;-62
2021/10/27 01:35:20;;;;;;;0.30;0.30;;;;;;;0.57;72.52;98251.16;5034429;28;20144;-61
2021/10/27 01:37:46;;;;;;;0.20;0.20;;;;;;;0.58;72.62;98250.16;5033043;28;20472;-60
2021/10/27 01:40:16;;;;;;;0.30;0.30;;;;;;;0.61;72.52;98252.47;5033506;28;20443;-61
2021/10/27 01:42:43;;;;;;;0.30;0.30;;;;;;;0.64;72.65;98248.56;5032823;28;20051;-60
2021/10/27 01:45:10;;;;;;;0.20;0.20;;;;;;;0.66;72.61;98244.66;5033785;28;20091;-61
2021/10/27 01:47:39;;;;;;;0.70;0.52;;;;;;;0.71;72.53;98252.22;5034119;28;20483;-59
2021/10/27 01:50:05;;;;;;;0.20;0.20;;;;;;;0.76;72.43;98244.38;5033591;28;20499;-63
2021/10/27 01:52:31;;;;;;;0.30;0.30;;;;;;;0.81;72.52;98246.50;5033334;28;20033;-63
2021/10/27 01:54:57;;;;;;;0.25;0.25;;;;;;;0.85;72.26;98245.13;5034086;28;20037;-62
2021/10/27 01:57:22;;;;;;;0.30;0.30;;;;;;;0.87;72.32;98253.91;5033693;28;20057;-62
2021/10/27 01:59:48;;;;;;;0.30;0.30;;;;;;;0.86;72.37;98244.09;5033465;28;20037;-62
2021/10/27 02:02:14;;;;;;;0.38;0.38;;;;;;;0.87;72.28;98237.69;5033564;28;20044;-60
2021/10/27 02:04:40;;;;;;;0.20;0.20;;;;;;;0.84;72.48;98243.44;5033651;28;20057;-61
2021/10/27 02:07:06;;;;;;;0.30;0.30;;;;;;;0.82;72.64;98240.91;5033782;28;20033;-61
2021/10/27 02:09:31;;;;;;;0.20;0.20;;;;;;;0.79;72.53;98243.16;5033372;28;20045;-60
2021/10/27 02:11:57;;;;;;;0.20;0.20;;;;;;;0.78;72.60;98241.47;5033833;28;20124;-60
2021/10/27 02:14:23;;;;;;;0.22;0.22;;;;;;;0.78;72.43;98238.78;5033970;28;20510;-61
2021/10/27 02:16:49;;;;;;;0.20;0.20;;;;;;;0.74;72.56;98245.56;5033805;28;20048;-62
2021/10/27 02:19:16;;;;;;;0.20;0.20;;;;;;;0.70;72.64;98237.00;5033040;28;20072;-60
2021/10/27 02:21:42;;;;;;;0.20;0.20;;;;;;;0.66;72.75;98244.66;5033939;28;20033;-63
2021/10/27 02:24:08;;;;;;;0.30;0.30;;;;;;;0.64;72.70;98241.28;5033374;28;20064;-62
2021/10/27 02:26:33;;;;;;;0.50;0.50;;;;;;;0.61;72.82;98244.38;5033237;28;20483;-63
2021/10/27 02:28:59;;;;;;;0.30;0.30;;;;;;;0.55;72.96;98249.69;5033791;28;20048;-61
2021/10/27 02:31:25;;;;;;;0.20;0.20;;;;;;;0.50;73.22;98242.09;5033072;28;20029;-61
2021/10/27 02:33:52;;;;;;;0.22;0.22;;;;;;;0.47;73.15;98239.78;5032888;28;20057;-61
2021/10/27 02:36:18;;;;;;;0.30;0.30;;;;;;;0.47;73.08;98242.47;5033134;28;20143;-62
2021/10/27 02:38:44;;;;;;;0.25;0.25;;;;;;;0.48;73.03;98239.59;5033388;28;20536;-62
2021/10/27 02:41:11;;;;;;;0.40;0.40;;;;;;;0.50;73.02;98236.72;5032942;28;20515;-60
2021/10/27 02:43:37;;;;;;;0.30;0.30;;;;;;;0.48;73.05;98247.69;5033204;28;20075;-60
2021/10/27 02:46:03;;;;;;;0.30;0.30;;;;;;;0.49;72.97;98235.06;5033117;28;20042;-61
2021/10/27 02:48:29;;;;;;;0.20;0.20;;;;;;;0.51;72.98;98246.50;5033045;28;20116;-61
2021/10/27 02:50:55;;;;;;;0.20;0.20;;;;;;;0.50;72.97;98248.38;5032760;28;20121;-61
2021/10/27 02:53:21;;;;;;;0.30;0.30;;;;;;;0.48;73.02;98242.28;5032741;28;20468;-59
2021/10/27 02:55:46;;;;;;;0.50;0.50;;;;;;;0.47;73.17;98253.28;5032744;28;20033;-61
2021/10/27 02:58:12;;;;;;;0.30;0.30;;;;;;;0.43;72.94;98239.31;5032807;28;20029;-60
2021/10/27 03:00:39;;;;;;;0.20;0.20;;;;;;;0.44;73.24;98250.97;5030963;28;20404;-60
2021/10/27 03:03:04;;;;;;;0.30;0.30;;;;;;;0.44;73.22;98242.84;5029886;28;20450;-61
2021/10/27 03:05:31;;;;;;;0.22;0.22;;;;;;;0.44;73.06;98240.16;5030823;28;20049;-61
2021/10/27 03:07:57;;;;;;;0.55;0.55;;;;;;;0.43;73.24;98243.91;5031298;28;20040;-60
2021/10/27 03:10:23;;;;;;;0.40;0.40;;;;;;;0.43;73.25;98246.59;5031047;28;20068;-61
2021/10/27 03:12:49;;;;;;;0.47;0.40;;;;;;;0.41;72.92;98243.22;5031137;28;20598;-60
2021/10/27 03:15:14;;;;;;;0.70;0.70;;;;;;;0.41;72.97;98240.53;5031050;28;20411;-60
2021/10/27 03:17:40;;;;;;;0.28;0.28;;;;;;;0.41;73.06;98243.22;5030996;28;20500;-59
2021/10/27 03:20:07;;;;;;;0.63;0.63;;;;;;;0.42;72.95;98239.50;5030668;28;20033;-62
2021/10/27 03:22:33;;;;;;;0.20;0.20;;;;;;;0.44;73.10;98238.31;5031102;28;20194;-61
2021/10/27 03:24:58;;;;;;;0.30;0.30;;;;;;;0.49;72.87;98240.47;5031008;28;20146;-61
2021/10/27 03:27:24;;;;;;;5.07;0.47;;;;;;;0.52;72.71;98246.31;5030966;28;20032;-61
2021/10/27 03:29:51;;;;;;;1.00;0.85;;;;;;;0.57;72.82;98248.47;5031109;28;20472;-62
2021/10/27 03:32:18;;;;;;;0.20;0.20;;;;;;;0.60;72.67;98248.09;5030834;28;20037;-61
2021/10/27 03:34:44;;;;;;;0.30;0.30;;;;;;;0.65;72.56;98244.84;5028034;28;20037;-62
2021/10/27 03:37:10;;;;;;;0.32;0.32;;;;;;;0.65;72.59;98242.97;5029642;28;20037;-62
2021/10/27 03:39:36;;;;;;;0.30;0.30;;;;;;;0.66;72.51;98252.78;5030857;28;20064;-62
2021/10/27 03:42:02;;;;;;;1.45;0.60;;;;;;;0.66;72.73;98247.38;5030571;28;20111;-62
2021/10/27 03:44:28;;;;;;;0.32;0.32;;;;;;;0.69;72.66;98249.69;5026993;28;20044;-61
2021/10/27 03:46:54;;;;;;;0.30;0.30;;;;;;;0.73;72.51;98249.31;5028907;28;20037;-62
2021/10/27 03:49:20;;;;;;;0.30;0.30;;;;;;;0.75;72.61;98247.25;5028709;28;20463;-62
2021/10/27 03:51:46;;;;;;;0.30;0.30;;;;;;;0.76;72.61;98252.47;5028902;28;20033;-63
2021/10/27 03:54:13;;;;;;;0.30;0.30;;;;;;;0.78;72.56;98247.75;5029228;28;20479;-63
2021/10/27 03:56:39;;;;;;;0.40;0.40;;;;;;;0.80;72.78;98247.56;5028841;28;20039;-62
2021/10/27 03:59:05;;;;;;;0.35;0.35;;;;;;;0.84;72.63;98248.84;5028856;28;20033;-62
2021/10/27 04:01:31;;;;;;;0.30;0.30;;;;;;;0.87;72.60;98251.19;5029611;28;20392;-63
2021/10/27 04:03:57;;;;;;;0.30;0.30;;;;;;;0.85;72.60;98245.13;5032726;28;20155;-62
2021/10/27 04:06:23;;;;;;;0.47;0.47;;;;;;;0.83;72.62;98253.41;5032733;28;20029;-62
2021/10/27 04:08:49;;;;;;;0.38;0.38;;;;;;;0.82;72.81;98250.91;5033546;28;20026;-61
2021/10/27 04:11:14;;;;;;;0.20;0.20;;;;;;;0.85;72.79;98250.53;5034599;28;20079;-63
2021/10/27 04:13:40;;;;;;;0.75;0.65;;;;;;;0.88;72.83;98258.25;5034606;28;20218;-61
2021/10/27 04:16:06;;;;;;;0.40;0.40;;;;;;;0.87;72.67;98253.91;5034265;28;20053;-63
2021/10/27 04:18:32;;;;;;;0.45;0.45;;;;;;;0.90;72.81;98253.53;5034344;28;20056;-62
2021/10/27 04:20:58;;;;;;;0.30;0.30;;;;;;;0.93;72.85;98252.28;5033186;28;20477;-62
2021/10/27 04:23:24;;;;;;;0.57;0.30;;;;;;;1.02;72.63;98252.03;5031495;28;20029;-62
2021/10/27 04:25:51;;;;;;;0.45;0.45;;;;;;;1.08;72.46;98245.03;5034211;28;20162;-61
2021/10/27 04:28:16;;;;;;;0.30;0.30;;;;;;;1.18;72.35;98250.16;5034333;28;20049;-61
2021/10/27 04:30:42;;;;;;;0.40;0.40;;;;;;;1.28;72.08;98250.69;5033471;28;20026;-61
2021/10/27 04:33:16;;;;;;;0.52;0.52;;;;;;;1.38;71.93;98250.38;5034224;28;20150;-64
2021/10/27 04:35:42;;;;;;;0.40;0.40;;;;;;;1.46;71.81;98254.84;5034059;28;20513;-63
2021/10/27 04:38:08;;;;;;;0.77;0.77;;;;;;;1.54;71.68;98252.03;5033904;28;20041;-64
2021/10/27 04:40:34;;;;;;;0.30;0.30;;;;;;;1.61;71.55;98254.81;5033988;28;20043;-61
2021/10/27 04:42:59;;;;;;;0.30;0.30;;;;;;;1.63;71.61;98259.00;5030774;28;20503;-61
2021/10/27 04:45:26;;;;;;;0.38;0.38;;;;;;;1.64;71.66;98252.56;5030745;28;20037;-62
2021/10/27 04:47:51;;;;;;;0.70;0.70;;;;;;;1.67;71.73;98254.06;5031978;28;20033;-62
2021/10/27 04:50:17;;;;;;;0.45;0.45;;;;;;;1.67;71.66;98252.19;5032474;28;20160;-63
2021/10/27 04:52:43;;;;;;;0.40;0.40;;;;;;;1.64;71.78;98259.84;5029663;28;20065;-65
2021/10/27 04:55:09;;;;;;;0.70;0.50;;;;;;;1.63;71.87;98256.28;5029763;28;20029;-63
2021/10/27 04:57:35;;;;;;;0.57;0.57;;;;;;;1.62;72.13;98246.50;5031056;28;20452;-61
2021/10/27 05:00:01;;;;;;;0.80;0.60;;;;;;;1.66;72.07;98247.78;5031147;28;20037;-62
2021/10/27 05:02:26;;;;;;;0.45;0.45;;;;;;;1.67;72.03;98249.47;5031634;28;20033;-62
2021/10/27 05:04:52;;;;;;;0.70;0.63;;;;;;;1.59;72.28;98246.91;5032734;28;20139;-61
2021/10/27 05:07:18;;;;;;;0.30;0.30;;;;;;;1.54;72.53;98252.03;5033478;28;20025;-62
2021/10/27 05:09:45;;;;;;;0.68;0.68;;;;;;;1.49;72.64;98244.50;5034524;28;20507;-63
2021/10/27 05:12:11;;;;;;;0.25;0.25;;;;;;;1.50;72.74;98245.31;5034539;28;20088;-62
2021/10/27 05:14:41;;;;;;;0.47;0.47;;;;;;;1.55;72.63;98242.91;5033209;28;20025;-62
2021/10/27 05:17:15;;;;;;;0.20;0.20;;;;;;;1.56;72.62;98258.94;5034580;28;20044;-62
2021/10/27 05:19:43;;;;;;;0.65;0.47;;;;;;;1.56;72.36;98247.25;5035117;28;20042;-60
2021/10/27 05:22:11;;;;;;;0.63;0.52;;;;;;;1.57;72.64;98254.34;5034765;28;20051;-61
2021/10/27 05:24:38;;;;;;;0.35;0.35;;;;;;;1.57;72.59;98262.47;5034503;28;20112;-62
2021/10/27 05:27:04;;;;;;;0.55;0.55;;;;;;;1.55;72.60;98256.44;5034485;28;20033;-61
2021/10/27 05:29:31;;;;;;;0.60;0.60;;;;;;;1.57;72.68;98262.47;5034920;28;20029;-61
2021/10/27 05:31:57;;;;;;;0.30;0.30;;;;;;;1.58;72.69;98256.03;5033979;28;20041;-62
2021/10/27 05:34:23;;;;;;;0.20;0.20;;;;;;;1.57;72.71;98270.59;5034703;28;20112;-60
2021/10/27 05:36:49;;;;;;;0.32;0.32;;;;;;;1.55;72.84;98259.97;5034313;28;20121;-61
2021/10/27 05:39:15;;;;;;;0.30;0.30;;;;;;;1.54;72.89;98266.38;5034235;28;20053;-62
2021/10/27 05:41:49;;;;;;;0.20;0.20;;;;;;;1.51;73.00;98260.53;5034123;28;20048;-61
2021/10/27 05:44:19;;;;;;;0.40;0.40;;;;;;;1.48;73.06;98258.22;5034437;28;20033;-61
2021/10/27 05:46:49;;;;;;;0.25;0.25;;;;;;;1.47;73.08;98254.66;5033956;28;20090;-62
2021/10/27 05:57:42;;;;;;;0.20;0.20;;;;;;;1.53;72.95;98259.31;5034431;28;20095;-62
2021/10/27 06:00:10;;;;;;;0.35;0.35;;;;;;;1.59;72.77;98257.72;5033634;28;20036;-62
2021/10/27 06:02:36;;;;;;;0.30;0.30;;;;;;;1.60;72.68;98258.56;5033537;28;20096;-62
2021/10/27 06:05:03;;;;;;;0.40;0.40;;;;;;;1.59;72.81;98257.72;5033674;28;20092;-63
2021/10/27 06:07:31;;;;;;;0.20;0.20;;;;;;;1.63;72.64;98256.28;5033794;28;20068;-62
2021/10/27 06:09:57;;;;;;;4.45;0.75;;;;;;;1.64;72.91;98260.69;5033817;28;20038;-61
2021/10/27 06:12:22;;;;;;;0.30;0.30;;;;;;;1.68;72.85;98258.41;5033609;28;20034;-62
2021/10/27 06:14:49;;;;;;;0.38;0.38;;;;;;;1.69;72.75;98263.66;5033734;28;20420;-62
2021/10/27 06:17:15;;;;;;;0.63;0.57;;;;;;;1.66;72.76;98258.59;5033277;28;20040;-62
2021/10/27 06:19:41;;;;;;;0.52;0.52;;;;;;;1.66;72.90;98252.38;5033359;28;20033;-61
2021/10/27 06:22:09;;;;;;;0.50;0.50;;;;;;;1.64;72.94;98255.28;5033706;28;20040;-62
2021/10/27 06:24:35;;;;;;;0.30;0.30;;;;;;;1.64;73.03;98249.84;5033305;28;20061;-61
2021/10/27 06:27:03;;;;;;;0.55;0.55;;;;;;;1.69;73.02;98252.84;5033685;28;20491;-62
2021/10/27 06:29:53;;;;;;;0.43;0.43;;;;;;;1.74;72.79;98247.69;5033410;28;20541;-62
2021/10/27 06:34:56;;;;;;;0.40;0.40;;;;;;;1.80;72.80;98251.50;5033628;28;20033;-62
2021/10/27 06:37:53;;;;;;;0.50;0.50;;;;;;;1.88;72.56;98253.22;5033199;28;20505;-61
2021/10/27 06:48:32;;;;;;;0.30;0.30;;;;;;;1.86;72.69;98242.59;5032923;28;20087;-61
2021/10/27 06:50:58;;;;;;;0.30;0.30;;;;;;;1.86;72.63;98234.47;5032528;28;20084;-61
2021/10/27 06:53:24;;;;;;;0.65;0.65;;;;;;;1.88;72.54;98235.09;5032733;28;20061;-61
2021/10/27 06:55:50;;;;;;;0.70;0.55;;;;;;;1.92;72.74;98232.88;5033493;28;20499;-62
2021/10/27 06:58:20;;;;;;;0.35;0.35;;;;;;;1.90;72.53;98240.34;5034711;28;20037;-62
2021/10/27 07:00:51;;;;;;;0.35;0.35;;;;;;;1.85;72.73;98234.66;5032206;28;20228;-63
2021/10/27 07:03:36;;;;;;;;;;;;;;;1.75;72.96;98227.72;5032865;28;20045;-61
2021/10/27 07:06:37;;;;;;;0.30;0.30;;;;;;;1.72;73.11;98241.63;5032660;28;20440;-63
2021/10/27 07:17:08;;;;;;;1.80;0.97;;;;;;;1.87;72.77;98227.19;5032748;28;20036;-62
2021/10/27 07:19:34;;;;;;;2.55;1.45;;;;;;;1.89;72.80;98227.84;5032849;28;20037;-64
2021/10/27 07:22:00;;;;;;;0.57;0.57;;;;;;;1.90;72.80;98226.81;5032473;28;20037;-63
2021/10/27 07:24:25;;;;;;;0.50;0.50;;;;;;;1.94;72.78;98230.78;5032459;28;20476;-63
2021/10/27 07:26:53;;;;;;;0.25;0.25;;;;;;;1.97;72.73;98227.69;5032945;28;20041;-62
2021/10/27 07:29:19;;;;;;;0.30;0.30;;;;;;;2.00;72.58;98227.28;5032588;28;20140;-62
2021/10/27 07:31:49;;;;;;;1.08;0.63;;;;;;;2.04;72.52;98223.19;5031757;28;20459;-62
2021/10/27 07:34:16;;;;;;;0.35;0.35;;;;;;;2.02;72.58;98221.72;5032446;28;20091;-63
2021/10/27 07:42:10;;;;;;;0.50;0.50;;;;;;;2.12;72.60;98232.19;5032510;28;20171;-63
2021/10/27 07:44:36;;;;;;;0.30;0.30;;;;;;;2.14;72.44;98227.44;5032187;28;20342;-61
2021/10/27 07:47:02;;;;;;;0.90;0.40;;;;;;;2.14;72.64;98222.03;5032446;28;20041;-62
2021/10/27 07:49:27;;;;;;;0.75;0.75;;;;;;;2.15;72.53;98224.53;5032347;28;20412;-62
2021/10/27 07:51:53;;;;;;;0.35;0.35;;;;;;;2.15;72.66;98219.13;5031299;28;20037;-63
2021/10/27 07:54:19;;;;;;;1.20;0.75;;;;;;;2.13;72.78;98225.75;5032836;28;20080;-62
2021/10/27 07:56:47;;;;;;;1.98;0.73;;;;;;;2.08;72.82;98224.47;5032001;28;20511;-62
2021/10/27 07:59:15;;;;;;;0.30;0.30;;;;;;;2.09;72.89;98209.91;5032111;28;20091;-63
2021/10/27 08:01:40;;;;;;;0.40;0.40;;;;;;;2.14;72.80;98217.44;5030432;28;20046;-63
2021/10/27 08:04:06;;;;;;;1.42;0.60;;;;;;;2.14;72.78;98211.19;5032209;28;20453;-62
2021/10/27 08:06:32;;;;;;;0.47;0.47;;;;;;;2.17;72.77;98208.09;5032166;28;20045;-64
2021/10/27 08:08:58;;;;;;;2.30;0.40;;;;;;;2.19;72.77;98217.66;5030876;28;20033;-62
2021/10/27 08:11:26;;;;;;;0.28;0.28;;;;;;;2.27;72.40;98206.72;5031931;28;20107;-63
2021/10/27 08:13:53;;;;;;;0.50;0.50;;;;;;;2.31;72.61;98204.44;5032120;28;20037;-63
2021/10/27 08:16:19;;;;;;;0.30;0.30;;;;;;;2.32;72.34;98210.72;5032112;28;20034;-63
2021/10/27 08:18:45;;;;;;;0.47;0.47;;;;;;;2.30;72.62;98210.91;5032105;28;20084;-62
2021/10/27 08:21:11;;;;;;;0.50;0.50;;;;;;;2.35;72.42;98213.03;5032385;28;20041;-61
2021/10/27 08:23:40;;;;;;;0.30;0.30;;;;;;;2.37;72.33;98210.94;5032516;28;20111;-62
2021/10/27 08:26:10;;;;;;;0.35;0.30;;;;;;;2.37;72.37;98200.09;5031769;28;20037;-63
2021/10/27 08:28:42;;;;;;;0.25;0.25;;;;;;;2.32;72.54;98208.81;5030773;28;20132;-65
2021/10/27 08:36:05;;;;;;;0.55;0.55;;;;;;;2.40;72.52;98200.56;5028372;28;20052;-62
2021/10/27 08:38:32;;;;;;;0.32;0.32;;;;;;;2.41;72.50;98199.50;5029714;28;20054;-62
2021/10/27 08:40:59;;;;;;;0.40;0.40;;;;;;;2.39;72.58;98198.88;5029945;28;20073;-63
2021/10/27 08:43:26;;;;;;;0.35;0.35;;;;;;;2.37;72.48;98195.53;5030118;28;20071;-63
2021/10/27 08:45:53;;;;;;;1.45;0.73;;;;;;;2.39;72.68;98198.88;5028228;28;20056;-62
2021/10/27 08:48:19;;;;;;;0.40;0.40;;;;;;;2.47;72.48;98195.16;5032518;28;20124;-62
2021/10/27 08:50:49;;;;;;;0.30;0.30;;;;;;;2.50;72.38;98192.06;5033319;28;20120;-63
2021/10/27 08:53:20;;;;;;;0.32;0.30;;;;;;;2.49;72.47;98195.84;5033476;28;20216;-65
2021/10/27 08:55:48;;;;;;;0.30;0.30;;;;;;;2.45;72.58;98191.84;5030632;28;20141;-63
2021/10/27 08:58:20;;;;;;;4.68;0.43;;;;;;;2.37;73.03;98187.41;5033303;28;20037;-65
2021/10/27 09:01:07;;;;;;;0.50;0.50;;;;;;;2.32;73.08;98191.75;5032699;28;20033;-62
2021/10/27 09:03:57;;;;;;;0.40;0.40;;;;;;;2.28;73.04;98192.13;5035048;28;20119;-63
2021/10/27 09:06:28;;;;;;;0.40;0.40;;;;;;;2.25;73.14;98181.69;5035282;28;20476;-62
2021/10/27 09:37:09;;;;;;;1.55;0.68;;;;;;;2.31;73.13;98158.38;5034627;28;20396;-69
2021/10/27 09:40:07;;;;;;;0.35;0.35;;;;;;;2.27;73.38;98157.13;5034150;28;20033;-64
2021/10/27 10:05:21;;;;;;;0.35;0.35;;;;;;;2.19;73.26;98146.41;5031383;28;20099;-61
2021/10/27 10:07:48;;;;;;;0.40;0.40;;;;;;;2.16;73.43;98141.41;5032685;28;20128;-63
2021/10/27 10:10:15;;;;;;;1.50;0.77;;;;;;;2.17;73.25;98133.09;5032103;28;20037;-62
2021/10/27 10:12:43;;;;;;;0.50;0.50;;;;;;;2.19;73.33;98135.59;5028769;28;20529;-63
2021/10/27 10:15:10;;;;;;;0.43;0.43;;;;;;;2.23;73.10;98129.56;5027826;28;20032;-64
2021/10/27 10:17:45;;;;;;;0.45;0.45;;;;;;;2.25;72.88;98132.09;5030345;28;20034;-65
2021/10/27 10:20:13;;;;;;;0.55;0.55;;;;;;;2.29;73.06;98138.78;5028935;28;20048;-62
2021/10/27 10:22:40;;;;;;;0.68;0.68;;;;;;;2.34;72.97;98127.34;5030185;28;20041;-62
2021/10/27 10:25:18;;;;;;;2.47;0.60;;;;;;;2.35;73.01;98132.56;5028097;28;20036;-63
2021/10/27 10:27:46;;;;;;;0.73;0.70;;;;;;;2.30;72.99;98134.19;5029821;28;20040;-63
2021/10/27 10:30:38;;;;;;;0.35;0.35;;;;;;;2.25;73.06;98129.38;5029294;28;20103;-62
2021/10/27 10:33:07;;;;;;;0.93;0.68;;;;;;;2.26;73.14;98122.94;5027909;28;20036;-62
2021/10/27 10:35:52;;;;;;;0.25;0.25;;;;;;;2.28;73.05;98127.13;5025891;28;20037;-65
2021/10/27 11:25:29;;;;;;;0.30;0.30;;;;;;;1.80;73.50;98128.84;5027602;28;20037;-65
2021/10/27 11:39:35;;;;;;;0.40;0.40;;;;;;;1.69;73.76;98133.75;5029650;28;20041;-64
2021/10/27 11:45:06;;;;;;;0.80;0.75;;;;;;;1.66;73.73;98123.28;5026363;28;20033;-64
2021/10/27 11:47:45;;;;;;;0.90;0.40;;;;;;;1.64;73.81;98129.97;5029045;28;20131;-64
2021/10/27 11:50:17;;;;;;;0.30;0.30;;;;;;;1.60;73.94;98121.38;5027853;28;20065;-67
2021/10/27 11:52:45;;;;;;;0.60;0.60;;;;;;;1.61;74.11;98116.81;5026562;28;20064;-63
2021/10/27 11:55:14;;;;;;;0.50;0.50;;;;;;;1.64;73.96;98113.72;5028602;28;20029;-63
2021/10/27 11:57:41;;;;;;;0.65;0.47;;;;;;;1.61;74.04;98108.69;5026595;28;20056;-63
2021/10/27 12:00:44;;;;;;;0.30;0.30;;;;;;;1.59;74.21;98111.59;5028202;28;20461;-63
2021/10/27 12:05:58;;;;;;;0.30;0.30;;;;;;;1.62;74.03;98094.97;5026178;28;20128;-63
2021/10/27 12:11:18;;;;;;;0.70;0.70;;;;;;;1.58;74.07;98094.50;5027579;28;20037;-66
2021/10/27 12:19:18;;;;;;;0.47;0.47;;;;;;;1.54;73.92;98081.56;5028969;28;20022;-64
2021/10/27 12:22:10;;;;;;;0.50;0.50;;;;;;;1.49;74.06;98087.56;5027733;28;20076;-64
2021/10/27 12:24:38;;;;;;;1.00;0.50;;;;;;;1.44;74.01;98090.00;5046181;28;20033;-65
2021/10/27 12:27:19;;;;;;;3.70;0.95;;;;;;;1.43;74.16;98072.13;5030847;28;20044;-65
2021/10/27 12:29:53;;;;;;;0.45;0.43;;;;;;;1.40;74.02;98081.44;5030950;28;20040;-65
2021/10/27 12:32:19;;;;;;;4.85;0.82;;;;;;;1.38;74.19;98082.66;5030421;28;20060;-64
2021/10/27 12:34:48;;;;;;;0.82;0.82;;;;;;;1.34;74.06;98081.38;5032330;28;20546;-64
2021/10/27 12:37:33;;;;;;;0.20;0.20;;;;;;;1.33;74.10;98077.84;5032913;28;20037;-66
2021/10/27 12:40:30;;;;;;;0.28;0.28;;;;;;;1.31;73.93;98079.06;5032015;28;20033;-66
2021/10/27 12:43:09;;;;;;;0.30;0.30;;;;;;;1.30;73.94;98077.41;5031256;28;20506;-62
2021/10/27 12:46:02;;;;;;;0.45;0.45;;;;;;;1.28;74.02;98085.72;5031822;28;20037;-64
2021/10/27 12:48:39;;;;;;;0.75;0.75;;;;;;;1.28;73.79;98072.19;5030493;28;20049;-61
2021/10/27 12:51:09;;;;;;;0.22;0.22;;;;;;;1.29;73.92;98079.25;5031843;28;20033;-62
2021/10/27 12:53:43;;;;;;;0.73;0.73;;;;;;;1.29;73.72;98078.44;5031975;28;20514;-62
2021/10/27 12:56:14;;;;;;;0.50;0.50;;;;;;;1.30;73.69;98074.69;5030328;28;20033;-63
2021/10/27 12:58:46;;;;;;;0.35;0.35;;;;;;;1.30;73.73;98075.53;5031370;28;20474;-65
2021/10/27 13:04:13;;;;;;;0.47;0.47;;;;;;;1.32;73.78;98078.88;5031332;28;20045;-63
2021/10/27 13:11:43;;;;;;;0.38;0.30;;;;;;;1.38;73.72;98078.13;5031725;28;20044;-63
2021/10/27 13:14:32;;;;;;;0.73;0.50;;;;;;;1.36;73.71;98080.16;5030059;28;20481;-62
2021/10/27 13:30:15;;;;;;;0.70;0.70;;;;;;;1.34;73.60;98044.38;5029514;28;20087;-62
2021/10/27 13:32:54;;;;;;;;;;;;;;;1.28;73.79;98055.09;5029069;28;20033;-62
2021/10/27 13:35:22;;;;;;;1.38;1.17;;;;;;;1.26;73.78;98046.38;5029968;28;19928;-61
2021/10/27 13:37:49;;;;;;;0.90;0.90;;;;;;;1.28;73.70;98045.16;5030882;28;20033;-61
2021/10/27 13:40:15;;;;;;;0.75;0.75;;;;;;;1.28;73.44;98042.44;5031417;28;20026;-64
2021/10/27 13:45:33;;;;;;;2.08;0.95;;;;;;;1.30;73.47;98048.47;5029551;28;20042;-66
2021/10/27 14:05:58;;;;;;;0.40;0.40;;;;;;;1.13;73.69;98038.97;5027586;28;20044;-64
2021/10/27 14:07:43;;;;;;;0.43;0.43;;;;;;;1.11;73.65;98033.75;5002305;28;20092;-62
2021/10/27 14:10:14;;;;;;;0.70;0.40;;;;;;;1.10;73.60;98015.00;5024761;28;20084;-63
2021/10/27 14:12:54;;;;;;;0.80;0.63;;;;;;;1.10;73.41;98012.31;5031236;28;20547;-64
2021/10/27 14:18:29;;;;;;;0.70;0.52;;;;;;;1.14;73.42;98011.72;5032076;28;20064;-64
2021/10/27 14:40:14;;;;;;;0.30;0.30;;;;;;;1.04;73.19;98006.63;5031404;28;20275;-64
2021/10/27 15:15:36;;;;;;;0.93;0.73;;;;;;;1.10;73.08;97999.63;5031153;28;20522;-62
2021/10/27 15:20:52;;;;;;;0.40;0.40;;;;;;;1.18;73.09;97977.84;5027829;28;20044;-65
2021/10/27 15:23:39;;;;;;;0.52;0.52;;;;;;;1.20;73.13;97972.25;5024265;28;20040;-64
2021/10/27 15:29:01;;;;;;;0.40;0.40;;;;;;;1.17;73.13;97961.84;5028035;28;20032;-64
2021/10/27 15:31:33;;;;;;;0.73;0.55;;;;;;;1.18;73.09;97963.50;5023056;28;20064;-64
2021/10/27 15:34:21;;;;;;;0.77;0.40;;;;;;;1.18;73.02;97960.81;5029247;28;20099;-64
2021/10/27 15:42:18;;;;;;;0.60;0.60;;;;;;;1.22;73.05;97956.66;5028412;28;20056;-63
2021/10/27 15:52:38;;;;;;;0.55;0.50;;;;;;;1.21;73.03;97936.09;5027178;28;20035;-62
2021/10/27 15:55:06;;;;;;;1.50;0.93;;;;;;;1.20;73.19;97943.34;5026417;28;20043;-66
2021/10/27 15:57:32;;;;;;;0.38;0.38;;;;;;;1.22;73.13;97943.13;5027589;28;20385;-64
2021/10/27 15:59:58;;;;;;;0.57;0.57;;;;;;;1.25;73.18;97947.31;5031479;28;20049;-65
2021/10/27 16:02:24;;;;;;;0.40;0.40;;;;;;;1.28;72.93;97944.22;5032648;28;20033;-64
2021/10/27 16:04:50;;;;;;;0.30;0.30;;;;;;;1.30;72.96;97937.59;5031620;28;20045;-67
2021/10/27 16:07:16;;;;;;;0.45;0.45;;;;;;;1.30;73.11;97931.34;5032556;28;20033;-68
2021/10/27 16:09:45;;;;;;;2.00;0.82;;;;;;;1.31;73.04;97933.88;5032629;28;20080;-66
2021/10/27 16:12:15;;;;;;;1.55;0.80;;;;;;;1.29;73.15;97933.22;5031723;28;20082;-65
2021/10/27 16:14:41;;;;;;;0.65;0.45;;;;;;;1.27;73.12;97924.47;5031759;28;20033;-62
2021/10/27 16:17:07;;;;;;;0.60;0.60;;;;;;;1.27;73.17;97924.47;5031689;28;20033;-65
2021/10/27 16:19:34;;;;;;;1.05;0.70;;;;;;;1.26;73.19;97919.25;5032331;28;20028;-64
2021/10/27 16:22:00;;;;;;;1.35;0.63;;;;;;;1.24;73.38;97916.75;5030803;28;20045;-64
2021/10/27 16:24:27;;;;;;;1.02;0.80;;;;;;;1.23;73.33;97910.50;5031200;28;20029;-63